Time;durP1;ratioP1;P1;durP2;ratioP2;P2;SDS_P1;SDS_P2;PMS_P1;PMS_P2;Temp;Humidity;BMP_temperature;BMP_pressure;BME280_temperature;BME280_humidity;BME280_pressure;Samples;Min_cycle;Max_cycle;Signal;HPM_P1;HPM_P2
2022/02/28 00:01:27;;;;;;;;;;;;;;;29.54;18.72;100920.66;5074752;28;877;-42
2022/02/28 00:03:54;;;;;;;;;;;;;;;29.53;18.57;100935.25;5076045;28;852;-42
2022/02/28 00:06:19;;;;;;;;;;;;;;;29.62;18.62;100928.69;5076320;28;855;-42
2022/02/28 00:08:45;;;;;;;;;;;;;;;28.38;19.88;100928.56;5072367;28;1961;-43
2022/02/28 00:11:10;;;;;;;;;;;;;;;27.78;20.60;100919.31;5076215;28;860;-42
2022/02/28 00:13:35;;;;;;;;;;;;;;;29.17;19.20;100923.44;5075696;28;839;-42
2022/02/28 00:16:01;;;;;;;;;;;;;;;29.17;19.14;100924.31;5070004;28;874;-43
2022/02/28 00:18:26;;;;;;;;;;;;;;;28.94;19.41;100925.28;5075946;28;869;-43
2022/02/28 00:20:51;;;;;;;;;;;;;;;28.85;19.57;100921.00;5074667;28;912;-42
2022/02/28 00:23:16;;;;;;;;;;;;;;;28.90;19.39;100926.69;5070786;28;801;-42
2022/02/28 00:25:42;;;;;;;;;;;;;;;28.97;19.41;100929.50;5075939;28;911;-42
2022/02/28 00:28:07;;;;;;;;;;;;;;;29.11;19.10;100930.50;5075983;28;1902;-42
2022/02/28 00:30:33;;;;;;;;;;;;;;;29.16;19.00;100933.44;5071771;28;938;-42
2022/02/28 00:32:59;;;;;;;;;;;;;;;29.13;19.04;100928.41;5069256;28;1043;-42
2022/02/28 00:35:24;;;;;;;;;;;;;;;29.29;19.07;100937.31;5072626;28;872;-42
2022/02/28 00:37:49;;;;;;;;;;;;;;;29.36;19.04;100926.56;5091000;28;931;-42
2022/02/28 00:40:14;;;;;;;;;;;;;;;29.40;19.04;100928.69;5075762;28;861;-42
2022/02/28 00:42:40;;;;;;;;;;;;;;;29.45;18.98;100928.94;5079760;28;731;-42
2022/02/28 00:45:05;;;;;;;;;;;;;;;29.51;18.75;100940.84;5079578;28;1045;-42
2022/02/28 00:47:31;;;;;;;;;;;;;;;29.61;18.53;100937.03;5072812;28;1918;-42
2022/02/28 00:49:56;;;;;;;;;;;;;;;29.66;18.81;100942.69;5079716;28;960;-42
2022/02/28 00:52:21;;;;;;;;;;;;;;;29.67;18.72;100941.66;5079443;28;846;-42
2022/02/28 00:54:46;;;;;;;;;;;;;;;29.72;18.59;100938.34;5079994;28;981;-42
2022/02/28 00:57:12;;;;;;;;;;;;;;;29.80;18.38;100944.47;5079648;28;876;-42
2022/02/28 00:59:37;;;;;;;;;;;;;;;28.34;20.11;100949.72;5076186;28;787;-42
2022/02/28 01:02:02;;;;;;;;;;;;;;;27.84;20.35;100944.78;5079109;28;993;-42
2022/02/28 01:04:28;;;;;;;;;;;;;;;29.27;19.09;100956.50;5079955;28;820;-42
2022/02/28 01:06:53;;;;;;;;;;;;;;;29.23;19.00;100949.75;5079247;28;877;-43
2022/02/28 01:09:18;;;;;;;;;;;;;;;28.89;19.44;100941.25;5079519;28;1870;-42
2022/02/28 01:11:43;;;;;;;;;;;;;;;28.69;19.57;100941.88;5078662;28;840;-42
2022/02/28 01:14:09;;;;;;;;;;;;;;;28.71;19.69;100945.19;5073144;28;885;-42
2022/02/28 01:16:34;;;;;;;;;;;;;;;28.76;19.56;100930.28;5074459;28;899;-42
2022/02/28 01:18:59;;;;;;;;;;;;;;;28.85;19.68;100939.94;5079123;28;944;-42
2022/02/28 01:21:25;;;;;;;;;;;;;;;28.94;19.69;100924.44;5079120;28;861;-42
2022/02/28 01:23:50;;;;;;;;;;;;;;;28.99;19.50;100922.03;5079416;28;896;-42
2022/02/28 01:26:15;;;;;;;;;;;;;;;29.10;19.35;100926.09;5076272;28;885;-42
2022/02/28 01:28:40;;;;;;;;;;;;;;;29.18;19.25;100923.25;5078757;28;1890;-43
2022/02/28 01:31:06;;;;;;;;;;;;;;;29.28;19.02;100933.78;5078557;28;857;-43
2022/02/28 01:33:33;;;;;;;;;;;;;;;29.31;19.05;100927.97;5078500;28;1312;-43
2022/02/28 01:35:58;;;;;;;;;;;;;;;29.37;18.95;100926.38;5078517;28;865;-43
2022/02/28 01:38:23;;;;;;;;;;;;;;;29.44;18.92;100931.84;5076928;28;837;-42
2022/02/28 01:40:49;;;;;;;;;;;;;;;29.42;18.92;100931.19;5078745;28;814;-43
2022/02/28 01:43:14;;;;;;;;;;;;;;;29.55;18.69;100931.31;5093496;28;1102;-43
2022/02/28 01:45:39;;;;;;;;;;;;;;;29.58;18.73;100928.22;5074259;28;961;-43
2022/02/28 01:48:04;;;;;;;;;;;;;;;29.55;18.84;100922.34;5075264;28;1906;-43
2022/02/28 01:50:30;;;;;;;;;;;;;;;29.58;18.83;100935.50;5074437;28;1383;-43
2022/02/28 01:52:55;;;;;;;;;;;;;;;29.65;18.61;100935.56;5077088;28;1110;-42
2022/02/28 01:55:22;;;;;;;;;;;;;;;29.48;18.71;100921.47;5078382;28;892;-43
2022/02/28 01:57:47;;;;;;;;;;;;;;;28.08;19.99;100926.63;5078518;28;813;-42
2022/02/28 02:00:14;;;;;;;;;;;;;;;27.76;20.47;100926.78;5077178;28;835;-42
2022/02/28 02:02:40;;;;;;;;;;;;;;;29.98;17.96;100926.03;5073025;28;938;-43
2022/02/28 02:05:05;;;;;;;;;;;;;;;28.02;19.95;100911.16;5073153;28;813;-43
2022/02/28 02:07:30;;;;;;;;;;;;;;;27.57;20.61;100918.13;5078728;28;1898;-42
2022/02/28 02:09:57;;;;;;;;;;;;;;;27.39;20.60;100915.75;5078363;28;947;-42
2022/02/28 02:12:22;;;;;;;;;;;;;;;27.16;20.96;100913.88;5076211;28;1214;-42
2022/02/28 02:14:47;;;;;;;;;;;;;;;26.95;21.34;100918.03;5078572;28;1041;-42
2022/02/28 02:17:12;;;;;;;;;;;;;;;26.81;21.58;100913.41;5075677;28;859;-42
2022/02/28 02:19:38;;;;;;;;;;;;;;;26.70;21.70;100904.69;5078474;28;781;-42
2022/02/28 02:22:06;;;;;;;;;;;;;;;26.65;21.64;100905.22;5078242;28;825;-42
2022/02/28 02:24:31;;;;;;;;;;;;;;;27.33;21.40;100898.41;5077894;28;833;-42
2022/02/28 02:26:56;;;;;;;;;;;;;;;27.11;21.12;100902.81;5077643;28;924;-42
2022/02/28 02:29:22;;;;;;;;;;;;;;;27.02;21.21;100896.59;5072280;28;1906;-42
2022/02/28 02:31:47;;;;;;;;;;;;;;;27.65;20.69;100897.47;5075663;28;1028;-42
2022/02/28 02:34:12;;;;;;;;;;;;;;;28.16;19.99;100894.09;5077637;28;936;-42
2022/02/28 02:36:41;;;;;;;;;;;;;;;27.90;20.31;100895.38;5077934;28;750;-43
2022/02/28 02:39:07;;;;;;;;;;;;;;;27.96;20.20;100883.81;5078048;28;797;-42
2022/02/28 02:41:32;;;;;;;;;;;;;;;28.10;20.23;100892.97;5077676;28;780;-42
2022/02/28 02:43:58;;;;;;;;;;;;;;;28.32;20.05;100886.81;5077745;28;741;-42
2022/02/28 02:46:23;;;;;;;;;;;;;;;28.40;19.83;100883.19;5071365;28;895;-42
2022/02/28 02:48:48;;;;;;;;;;;;;;;28.46;19.92;100885.16;5077779;28;1950;-42
2022/02/28 02:51:16;;;;;;;;;;;;;;;28.56;19.66;100876.75;5077279;28;912;-42
2022/02/28 02:53:41;;;;;;;;;;;;;;;28.61;19.39;100868.91;5075915;28;880;-43
2022/02/28 02:56:07;;;;;;;;;;;;;;;28.67;19.58;100870.00;5073408;28;820;-42
2022/02/28 02:58:32;;;;;;;;;;;;;;;28.70;19.39;100865.03;5075895;28;855;-42
2022/02/28 03:00:57;;;;;;;;;;;;;;;28.77;19.07;100861.56;5073225;28;932;-43
2022/02/28 03:03:22;;;;;;;;;;;;;;;28.85;19.36;100858.72;5076803;28;857;-42
2022/02/28 03:05:48;;;;;;;;;;;;;;;28.87;19.31;100847.69;5076619;28;821;-43
2022/02/28 03:08:14;;;;;;;;;;;;;;;28.97;18.89;100856.38;5076592;28;1901;-42
2022/02/28 03:10:39;;;;;;;;;;;;;;;28.96;19.12;100838.44;5077046;28;777;-43
2022/02/28 03:13:04;;;;;;;;;;;;;;;28.98;18.96;100846.41;5076754;28;893;-44
2022/02/28 03:15:29;;;;;;;;;;;;;;;29.03;18.99;100833.94;5073331;28;875;-42
2022/02/28 03:17:55;;;;;;;;;;;;;;;29.01;18.67;100830.56;5077008;28;790;-42
2022/02/28 03:20:20;;;;;;;;;;;;;;;29.06;18.58;100833.53;5071384;28;842;-42
2022/02/28 03:22:45;;;;;;;;;;;;;;;29.05;18.69;100836.44;5076816;28;809;-44
2022/02/28 03:25:11;;;;;;;;;;;;;;;29.04;18.55;100845.63;5077078;28;828;-42
2022/02/28 03:27:36;;;;;;;;;;;;;;;29.11;18.63;100851.09;5076354;28;1898;-42
2022/02/28 03:30:01;;;;;;;;;;;;;;;29.12;18.47;100836.50;5076882;28;916;-43
2022/02/28 03:32:26;;;;;;;;;;;;;;;29.13;18.60;100846.34;5072882;28;1068;-42
2022/02/28 03:34:52;;;;;;;;;;;;;;;29.15;18.30;100855.09;5076316;28;865;-42
2022/02/28 03:37:17;;;;;;;;;;;;;;;29.11;18.55;100848.41;5076473;28;813;-42
2022/02/28 03:39:42;;;;;;;;;;;;;;;29.07;18.41;100846.06;5076482;28;920;-42
2022/02/28 03:45:10;;;;;;;;;;;;;;;29.09;18.64;100846.69;5071206;28;740;-42
2022/02/28 03:47:36;;;;;;;;;;;;;;;29.15;18.33;100847.81;5071250;28;1972;-42
2022/02/28 03:50:01;;;;;;;;;;;;;;;29.19;18.29;100846.41;5076052;28;1476;-42
2022/02/28 03:52:27;;;;;;;;;;;;;;;29.19;18.17;100850.97;5076601;28;823;-43
2022/02/28 03:54:52;;;;;;;;;;;;;;;29.16;18.29;100837.81;5076202;28;892;-42
2022/02/28 03:57:17;;;;;;;;;;;;;;;29.14;18.43;100840.72;5075668;28;844;-43
2022/02/28 03:59:42;;;;;;;;;;;;;;;29.15;18.33;100850.50;5075930;28;963;-42
2022/02/28 04:02:08;;;;;;;;;;;;;;;29.16;18.24;100840.53;5071401;28;858;-43
2022/02/28 04:04:33;;;;;;;;;;;;;;;29.15;18.45;100836.13;5075873;28;922;-43
2022/02/28 04:06:58;;;;;;;;;;;;;;;29.17;18.05;100831.34;5076447;28;861;-43
2022/02/28 04:09:24;;;;;;;;;;;;;;;29.19;18.42;100835.56;5075874;28;1898;-43
2022/02/28 04:11:49;;;;;;;;;;;;;;;29.15;18.33;100831.56;5075589;28;824;-43
2022/02/28 04:14:14;;;;;;;;;;;;;;;29.18;18.22;100827.59;5076231;28;762;-42
2022/02/28 04:16:39;;;;;;;;;;;;;;;29.15;18.34;100828.84;5072103;28;954;-42
2022/02/28 04:19:05;;;;;;;;;;;;;;;29.13;18.12;100839.03;5075997;28;1062;-43
2022/02/28 04:21:30;;;;;;;;;;;;;;;29.18;18.47;100830.31;5076342;28;893;-42
2022/02/28 04:23:55;;;;;;;;;;;;;;;29.19;18.30;100840.97;5074997;28;877;-42
2022/02/28 04:26:21;;;;;;;;;;;;;;;29.21;18.29;100829.94;5076022;28;868;-43
2022/02/28 04:28:46;;;;;;;;;;;;;;;29.22;18.44;100837.03;5075849;28;1894;-42
2022/02/28 04:31:11;;;;;;;;;;;;;;;29.23;18.33;100824.31;5075713;28;883;-43
2022/02/28 04:33:37;;;;;;;;;;;;;;;29.21;18.28;100841.59;5075355;28;1311;-43
2022/02/28 04:36:02;;;;;;;;;;;;;;;29.22;18.33;100826.19;5075684;28;897;-43
2022/02/28 04:38:28;;;;;;;;;;;;;;;29.26;18.31;100826.63;5075777;28;841;-43
2022/02/28 04:40:53;;;;;;;;;;;;;;;29.23;18.09;100833.28;5075812;28;881;-43
2022/02/28 04:43:18;;;;;;;;;;;;;;;29.29;18.15;100831.66;5076039;28;794;-42
2022/02/28 04:45:44;;;;;;;;;;;;;;;29.23;18.30;100830.56;5071952;28;841;-43
2022/02/28 04:48:09;;;;;;;;;;;;;;;29.28;18.26;100824.59;5075083;28;1902;-42
2022/02/28 04:50:34;;;;;;;;;;;;;;;29.16;18.17;100835.91;5074966;28;868;-47
2022/02/28 04:52:59;;;;;;;;;;;;;;;28.55;18.41;100832.59;5074198;28;835;-40
2022/02/28 04:55:25;;;;;;;;;;;;;;;27.94;18.16;100831.84;5073716;28;1177;-38
2022/02/28 04:57:50;;;;;;;;;;;;;;;28.05;17.92;100816.13;5075651;28;785;-39
2022/02/28 05:00:15;;;;;;;;;;;;;;;28.36;17.82;100824.06;5073846;28;986;-35
2022/02/28 05:02:41;;;;;;;;;;;;;;;28.82;18.13;100829.34;5072279;28;889;-37
2022/02/28 05:05:06;;;;;;;;;;;;;;;28.89;18.39;100829.41;5075417;28;825;-36
2022/02/28 05:07:31;;;;;;;;;;;;;;;28.92;18.17;100862.34;5075443;28;1957;-37
2022/02/28 05:09:57;;;;;;;;;;;;;;;28.92;18.09;100821.75;5075098;28;785;-35
2022/02/28 05:12:22;;;;;;;;;;;;;;;28.91;17.59;100830.06;5075598;28;825;-39
2022/02/28 05:14:48;;;;;;;;;;;;;;;28.96;17.44;100827.59;5075147;28;876;-39
2022/02/28 05:17:13;;;;;;;;;;;;;;;29.08;16.98;100831.50;5072980;28;966;-38
2022/02/28 05:19:38;;;;;;;;;;;;;;;29.25;16.66;100843.91;5075559;28;855;-36
2022/02/28 05:22:04;;;;;;;;;;;;;;;28.95;15.92;100809.66;5075160;28;733;-35
2022/02/28 05:24:32;;;;;;;;;;;;;;;28.26;16.35;100809.13;5074996;28;818;-35
2022/02/28 05:26:58;;;;;;;;;;;;;;;28.04;16.57;100801.81;5075833;28;797;-35
2022/02/28 05:29:23;;;;;;;;;;;;;;;28.11;16.71;100821.63;5079161;28;1957;-35
2022/02/28 05:31:48;;;;;;;;;;;;;;;28.06;16.95;100794.31;5073533;28;1099;-37
2022/02/28 05:34:14;;;;;;;;;;;;;;;28.11;16.60;100791.06;5079058;28;816;-36
2022/02/28 05:36:39;;;;;;;;;;;;;;;28.14;16.82;100811.47;5078812;28;978;-37
2022/02/28 05:39:04;;;;;;;;;;;;;;;28.17;16.63;100808.38;5079026;28;1322;-36
2022/02/28 05:41:30;;;;;;;;;;;;;;;28.46;17.26;100807.50;5078521;28;943;-36
2022/02/28 05:43:55;;;;;;;;;;;;;;;28.67;17.28;100803.16;5078441;28;868;-36
2022/02/28 05:46:20;;;;;;;;;;;;;;;28.72;17.47;100810.72;5073312;28;827;-36
2022/02/28 05:48:46;;;;;;;;;;;;;;;28.79;17.61;100817.03;5078577;28;1894;-35
2022/02/28 05:51:11;;;;;;;;;;;;;;;28.82;17.58;100823.91;5078582;28;828;-38
2022/02/28 05:53:36;;;;;;;;;;;;;;;28.84;17.77;100819.16;5078073;28;872;-37
2022/02/28 05:56:02;;;;;;;;;;;;;;;28.84;17.71;100811.84;5078252;28;792;-37
2022/02/28 05:58:27;;;;;;;;;;;;;;;28.93;17.82;100822.56;5078695;28;916;-37
2022/02/28 06:00:52;;;;;;;;;;;;;;;28.53;17.80;100817.59;5077233;28;899;-40
2022/02/28 06:03:18;;;;;;;;;;;;;;;27.92;18.46;100839.28;5077768;28;1055;-40
2022/02/28 06:05:43;;;;;;;;;;;;;;;28.04;17.87;100812.63;5071553;28;1041;-41
2022/02/28 06:08:08;;;;;;;;;;;;;;;28.07;17.62;100843.84;5078275;28;1961;-40
2022/02/28 06:10:33;;;;;;;;;;;;;;;28.15;17.58;100851.00;5078022;28;822;-37
2022/02/28 06:16:01;;;;;;;;;;;;;;;28.66;17.85;100850.19;5072715;28;1561;-38
2022/02/28 06:18:27;;;;;;;;;;;;;;;28.76;17.89;100857.19;5073771;28;954;-40
2022/02/28 06:20:52;;;;;;;;;;;;;;;28.81;17.52;100844.72;5078229;28;1037;-38
2022/02/28 06:23:17;;;;;;;;;;;;;;;28.78;17.95;100869.47;5076719;28;834;-36
2022/02/28 06:25:46;;;;;;;;;;;;;;;28.80;17.94;100867.44;5077712;28;1072;-36
2022/02/28 06:28:11;;;;;;;;;;;;;;;28.35;17.93;100857.56;5075731;28;1878;-42
2022/02/28 06:30:37;;;;;;;;;;;;;;;28.06;17.81;100851.09;5067628;28;816;-46
2022/02/28 06:33:02;;;;;;;;;;;;;;;28.13;17.97;100866.59;5072961;28;1218;-43
2022/02/28 06:35:28;;;;;;;;;;;;;;;28.11;17.53;100855.97;5078237;28;777;-40
2022/02/28 06:37:53;;;;;;;;;;;;;;;28.10;17.29;100876.75;5077501;28;897;-42
2022/02/28 06:40:18;;;;;;;;;;;;;;;28.26;17.19;100882.97;5076776;28;868;-36
2022/02/28 06:42:44;;;;;;;;;;;;;;;28.61;17.13;100882.44;5077743;28;861;-36
2022/02/28 06:45:09;;;;;;;;;;;;;;;28.70;17.13;100870.44;5076758;28;843;-36
2022/02/28 06:47:34;;;;;;;;;;;;;;;28.67;17.47;100881.66;5074528;28;1996;-37
2022/02/28 06:49:59;;;;;;;;;;;;;;;28.71;17.63;100876.72;5077695;28;936;-36
2022/02/28 06:52:25;;;;;;;;;;;;;;;28.76;17.69;100884.25;5077508;28;782;-36
2022/02/28 06:54:53;;;;;;;;;;;;;;;28.80;17.79;100893.66;5077223;28;918;-37
2022/02/28 06:57:18;;;;;;;;;;;;;;;28.81;17.92;100887.22;5077029;28;821;-37
2022/02/28 06:59:44;;;;;;;;;;;;;;;28.87;17.73;100893.72;5077035;28;853;-37
2022/02/28 07:02:09;;;;;;;;;;;;;;;28.90;17.76;100890.63;5075744;28;1009;-38
2022/02/28 07:04:34;;;;;;;;;;;;;;;28.89;17.76;100935.84;5077352;28;795;-38
2022/02/28 07:06:59;;;;;;;;;;;;;;;28.60;16.97;100919.47;5077145;28;946;-37
2022/02/28 07:09:25;;;;;;;;;;;;;;;28.38;16.37;100915.84;5075305;28;1906;-38
2022/02/28 07:11:50;;;;;;;;;;;;;;;28.37;15.53;100925.00;5076989;28;829;-38
2022/02/28 07:14:15;;;;;;;;;;;;;;;28.44;15.17;100927.78;5071141;28;980;-38
2022/02/28 07:16:41;;;;;;;;;;;;;;;28.47;14.83;100893.09;5075886;28;1198;-38
2022/02/28 07:19:06;;;;;;;;;;;;;;;28.38;14.87;100896.91;5073662;28;1202;-38
2022/02/28 07:21:31;;;;;;;;;;;;;;;28.40;15.17;100889.44;5076621;28;819;-38
2022/02/28 07:23:57;;;;;;;;;;;;;;;28.37;15.71;100903.34;5075085;28;900;-38
2022/02/28 07:26:24;;;;;;;;;;;;;;;28.39;15.84;100906.72;5074534;28;1012;-37
2022/02/28 07:28:49;;;;;;;;;;;;;;;28.41;16.43;100901.94;5076694;28;1901;-37
2022/02/28 07:31:14;;;;;;;;;;;;;;;28.42;16.53;100903.63;5072101;28;873;-37
2022/02/28 07:33:39;;;;;;;;;;;;;;;28.44;16.69;100901.59;5076750;28;1073;-37
2022/02/28 07:36:06;;;;;;;;;;;;;;;28.44;16.67;100892.63;5076299;28;898;-38
2022/02/28 07:38:33;;;;;;;;;;;;;;;28.43;16.87;100897.19;5076139;28;833;-37
2022/02/28 07:40:58;;;;;;;;;;;;;;;28.43;16.83;100896.34;5076357;28;819;-38
2022/02/28 07:43:24;;;;;;;;;;;;;;;28.41;17.13;100895.72;5076089;28;864;-37
2022/02/28 07:45:49;;;;;;;;;;;;;;;28.46;16.87;100904.09;5073935;28;875;-37
2022/02/28 07:48:14;;;;;;;;;;;;;;;28.43;17.01;100907.16;5076095;28;1914;-37
2022/02/28 07:50:39;;;;;;;;;;;;;;;28.47;16.88;100903.06;5075063;28;1452;-37
2022/02/28 07:53:05;;;;;;;;;;;;;;;28.43;17.30;100901.75;5075507;28;1024;-37
2022/02/28 07:55:30;;;;;;;;;;;;;;;28.40;17.24;100913.81;5076517;28;1237;-38
2022/02/28 07:57:55;;;;;;;;;;;;;;;28.45;17.12;100910.53;5075826;28;927;-38
2022/02/28 08:00:21;;;;;;;;;;;;;;;28.43;17.06;100908.00;5068664;28;824;-38
2022/02/28 08:02:46;;;;;;;;;;;;;;;28.40;17.29;100910.25;5073051;28;1593;-36
2022/02/28 08:05:11;;;;;;;;;;;;;;;28.47;17.55;100905.78;5074419;28;1373;-37
2022/02/28 08:07:39;;;;;;;;;;;;;;;28.50;17.69;100915.38;5075769;28;1898;-36
2022/02/28 08:10:05;;;;;;;;;;;;;;;28.48;17.85;100918.25;5074803;28;1297;-36
2022/02/28 08:12:31;;;;;;;;;;;;;;;28.55;17.73;100912.94;5074773;28;1454;-36
2022/02/28 08:14:56;;;;;;;;;;;;;;;28.51;17.85;100912.47;5073646;28;1521;-36
2022/02/28 08:17:21;;;;;;;;;;;;;;;28.62;17.79;100931.97;5075988;28;823;-36
2022/02/28 08:19:47;;;;;;;;;;;;;;;28.66;17.97;100911.63;5075421;28;1167;-35
2022/02/28 08:22:12;;;;;;;;;;;;;;;28.65;18.06;100920.75;5075889;28;1380;-36
2022/02/28 08:24:37;;;;;;;;;;;;;;;28.51;17.96;100920.59;5074833;28;1269;-34
2022/02/28 08:27:03;;;;;;;;;;;;;;;28.49;17.95;100911.84;5073936;28;1213;-35
2022/02/28 08:29:28;;;;;;;;;;;;;;;28.46;17.84;100925.75;5072123;28;1959;-43
2022/02/28 08:31:53;;;;;;;;;;;;;;;28.47;18.32;100925.56;5067005;28;1274;-42
2022/02/28 08:34:18;;;;;;;;;;;;;;;28.67;18.17;100927.69;5072628;28;1653;-43
2022/02/28 08:36:44;;;;;;;;;;;;;;;28.80;18.26;100915.31;5070945;28;1076;-42
2022/02/28 08:39:09;;;;;;;;;;;;;;;28.85;18.29;100927.25;5067885;28;1250;-42
2022/02/28 08:41:36;;;;;;;;;;;;;;;28.68;18.60;100929.34;5066389;28;1326;-42
2022/02/28 08:44:01;;;;;;;;;;;;;;;28.65;18.35;100918.91;5070850;28;1266;-41
2022/02/28 08:46:27;;;;;;;;;;;;;;;28.65;18.28;100929.72;5070412;28;1293;-43
2022/02/28 08:48:52;;;;;;;;;;;;;;;28.80;18.48;100926.16;5073289;28;1972;-44
2022/02/28 08:51:17;;;;;;;;;;;;;;;28.98;18.27;100928.47;5073373;28;1261;-44
2022/02/28 08:53:43;;;;;;;;;;;;;;;29.11;18.18;100919.66;5071264;28;1257;-43
2022/02/28 08:56:08;;;;;;;;;;;;;;;28.94;18.14;100938.81;5072675;28;1300;-42
2022/02/28 08:58:34;;;;;;;;;;;;;;;28.78;18.17;100937.16;5074377;28;1362;-42
2022/02/28 09:00:59;;;;;;;;;;;;;;;28.75;18.18;100932.13;5073750;28;1249;-42
2022/02/28 09:03:24;;;;;;;;;;;;;;;28.67;18.10;100937.66;5077544;28;1518;-42
2022/02/28 09:05:50;;;;;;;;;;;;;;;28.67;18.22;100937.66;5078148;28;1582;-42
2022/02/28 09:08:15;;;;;;;;;;;;;;;28.68;18.28;100926.63;5073210;28;1947;-41
2022/02/28 09:10:40;;;;;;;;;;;;;;;28.70;18.32;100932.72;5075993;28;1270;-41
2022/02/28 09:13:06;;;;;;;;;;;;;;;28.71;18.19;100934.38;5073375;28;1258;-42
2022/02/28 09:15:31;;;;;;;;;;;;;;;28.66;18.28;100925.97;5067486;28;1075;-42
2022/02/28 09:17:56;;;;;;;;;;;;;;;28.53;18.36;100939.38;5077255;28;1519;-43
2022/02/28 09:20:22;;;;;;;;;;;;;;;28.44;18.32;100936.75;5078446;28;1330;-42
2022/02/28 09:22:47;;;;;;;;;;;;;;;28.19;18.49;100930.75;5078311;28;1277;-44
2022/02/28 09:25:12;;;;;;;;;;;;;;;28.06;18.68;100934.09;5079038;28;1483;-42
2022/02/28 09:27:38;;;;;;;;;;;;;;;28.14;18.62;100933.19;5078101;28;1897;-42
2022/02/28 09:30:04;;;;;;;;;;;;;;;28.19;18.42;100925.34;5075414;28;1321;-42
2022/02/28 09:32:29;;;;;;;;;;;;;;;28.07;18.67;100927.66;5073098;28;1453;-42
2022/02/28 09:34:55;;;;;;;;;;;;;;;27.95;18.83;100933.53;5077671;28;1557;-42
2022/02/28 09:37:20;;;;;;;;;;;;;;;27.94;18.86;100929.16;5078041;28;1594;-43
2022/02/28 09:39:45;;;;;;;;;;;;;;;27.62;18.78;100928.41;5078101;28;1650;-42
2022/02/28 09:42:10;;;;;;;;;;;;;;;27.16;19.32;100924.69;5077617;28;1640;-44
2022/02/28 09:44:36;;;;;;;;;;;;;;;26.75;19.48;100929.28;5075473;28;1480;-44
2022/02/28 09:47:01;;;;;;;;;;;;;;;26.49;19.79;100908.81;5072897;28;1511;-44
2022/02/28 09:49:26;;;;;;;;;;;;;;;26.34;19.60;100908.69;5077583;28;1956;-44
2022/02/28 09:51:52;;;;;;;;;;;;;;;26.16;20.01;100898.94;5073277;28;1492;-43
2022/02/28 09:54:17;;;;;;;;;;;;;;;26.32;20.05;100902.63;5074656;28;1559;-43
2022/02/28 09:56:42;;;;;;;;;;;;;;;26.48;23.12;100900.88;5078171;28;1409;-42
2022/02/28 09:59:08;;;;;;;;;;;;;;;25.91;21.19;100898.16;5074813;28;1364;-43
2022/02/28 10:01:33;;;;;;;;;;;;;;;28.24;18.88;100904.00;5070536;28;1507;-43
2022/02/28 10:03:59;;;;;;;;;;;;;;;26.64;19.98;100900.81;5077448;28;1067;-44
2022/02/28 10:06:24;;;;;;;;;;;;;;;26.18;20.60;100896.09;5071561;28;1138;-44
2022/02/28 10:08:50;;;;;;;;;;;;;;;26.74;20.62;100907.88;5075764;28;1960;-45
2022/02/28 10:11:43;;;;;;;;;;;;;;;28.52;18.25;100897.94;5068513;28;1511;-45
2022/02/28 10:14:09;;;;;;;;;;;;;;;28.20;18.60;100897.25;5069725;28;1480;-42
2022/02/28 10:16:37;;;;;;;;;;;;;;;28.35;18.55;100905.41;5074967;28;1324;-41
2022/02/28 10:19:03;;;;;;;;;;;;;;;28.42;18.28;100900.94;5077225;28;1550;-41
2022/02/28 10:21:41;;;;;;;;;;;;;;;28.52;18.55;100900.63;5074192;28;1349;-41
2022/02/28 10:24:10;;;;;;;;;;;;;;;28.82;18.08;100884.31;5077900;28;1400;-40
2022/02/28 10:26:42;;;;;;;;;;;;;;;28.95;17.83;100893.59;5074918;28;1537;-40
2022/02/28 10:29:08;;;;;;;;;;;;;;;29.06;17.81;100903.16;5077312;28;1957;-40
2022/02/28 10:31:38;;;;;;;;;;;;;;;29.06;17.66;100887.72;5075364;28;1313;-44
2022/02/28 10:34:22;;;;;;;;;;;;;;;28.96;17.78;100884.47;5071724;28;1083;-43
2022/02/28 10:36:48;;;;;;;;;;;;;;;29.15;17.96;100884.88;5074785;28;1181;-43
2022/02/28 10:39:14;;;;;;;;;;;;;;;29.36;18.76;100875.91;5074132;28;1289;-42
2022/02/28 10:41:40;;;;;;;;;;;;;;;29.50;19.48;100881.41;5072748;28;1187;-39
2022/02/28 10:44:07;;;;;;;;;;;;;;;29.34;20.14;100862.53;5077468;28;1139;-40
2022/02/28 10:46:36;;;;;;;;;;;;;;;29.15;21.47;100863.22;5072839;28;1309;-40
2022/02/28 10:49:07;;;;;;;;;;;;;;;29.03;21.77;100865.63;5077423;28;1914;-40
2022/02/28 10:51:52;;;;;;;;;;;;;;;28.98;21.81;100863.47;5072113;28;1205;-40
2022/02/28 10:54:40;;;;;;;;;;;;;;;28.95;21.96;100870.09;5076553;28;1205;-40
2022/02/28 10:57:15;;;;;;;;;;;;;;;28.86;21.42;100863.13;5060653;28;1637;-40
2022/02/28 10:59:40;;;;;;;;;;;;;;;28.84;21.32;100863.28;5076835;28;1150;-39
2022/02/28 11:02:06;;;;;;;;;;;;;;;28.89;20.87;100862.75;5076483;28;1202;-40
2022/02/28 11:04:32;;;;;;;;;;;;;;;28.95;20.81;100855.69;5074981;28;1391;-41
2022/02/28 11:06:58;;;;;;;;;;;;;;;29.07;20.43;100865.03;5071052;28;1295;-40
2022/02/28 11:09:30;;;;;;;;;;;;;;;28.82;20.20;100865.38;5075248;28;1914;-40
2022/02/28 11:12:00;;;;;;;;;;;;;;;28.98;20.34;100844.50;5074928;28;1025;-40
2022/02/28 11:14:25;;;;;;;;;;;;;;;29.18;19.86;100869.06;5076304;28;1475;-41
2022/02/28 11:16:50;;;;;;;;;;;;;;;29.24;19.86;100874.75;5073375;28;1308;-40
2022/02/28 11:19:15;;;;;;;;;;;;;;;29.29;19.61;100869.59;5072839;28;1493;-42
2022/02/28 11:21:41;;;;;;;;;;;;;;;29.33;19.39;100868.16;5075845;28;1264;-42
2022/02/28 11:24:06;;;;;;;;;;;;;;;29.41;19.34;100875.31;5067961;28;1269;-43
2022/02/28 11:26:31;;;;;;;;;;;;;;;29.37;19.05;100860.47;5073260;28;1072;-41
2022/02/28 11:28:58;;;;;;;;;;;;;;;29.42;18.94;100858.88;5072870;28;1963;-40
2022/02/28 11:31:23;;;;;;;;;;;;;;;29.43;18.96;100873.25;5073606;28;1165;-41
2022/02/28 11:33:49;;;;;;;;;;;;;;;29.47;18.88;100890.78;5074517;28;1311;-43
2022/02/28 11:36:14;;;;;;;;;;;;;;;29.50;18.51;100894.97;5071304;28;1261;-39
2022/02/28 11:38:40;;;;;;;;;;;;;;;29.48;18.70;100903.31;5075979;28;1360;-39
2022/02/28 11:41:05;;;;;;;;;;;;;;;29.47;18.51;100904.34;5070460;28;1467;-42
2022/02/28 11:43:34;;;;;;;;;;;;;;;29.46;18.36;100924.38;5076119;28;872;-42
2022/02/28 11:46:05;;;;;;;;;;;;;;;29.44;18.36;100911.00;5068944;28;1332;-42
2022/02/28 11:48:34;;;;;;;;;;;;;;;29.46;18.10;100922.47;5075439;28;1968;-42
2022/02/28 11:51:00;;;;;;;;;;;;;;;29.36;18.31;100924.69;5075949;28;1215;-42
2022/02/28 11:53:35;;;;;;;;;;;;;;;29.40;18.28;100934.09;5074248;28;952;-42
2022/02/28 11:56:00;;;;;;;;;;;;;;;29.38;18.49;100941.56;5074613;28;1491;-41
2022/02/28 11:58:26;;;;;;;;;;;;;;;29.39;18.38;100935.16;5071791;28;1284;-42
2022/02/28 12:00:53;;;;;;;;;;;;;;;29.38;18.48;100957.00;5074363;28;1396;-41
2022/02/28 12:03:21;;;;;;;;;;;;;;;29.49;18.49;100951.06;5073584;28;1568;-41
2022/02/28 12:05:47;;;;;;;;;;;;;;;29.36;18.46;100961.78;5068971;28;1396;-41
2022/02/28 12:08:15;;;;;;;;;;;;;;;29.28;18.51;100960.03;5075893;28;1953;-42
2022/02/28 12:10:43;;;;;;;;;;;;;;;29.23;18.49;100965.19;5075656;28;1326;-41
2022/02/28 12:13:09;;;;;;;;;;;;;;;29.12;18.57;100969.22;5073348;28;1638;-41
2022/02/28 12:15:34;;;;;;;;;;;;;;;29.19;18.61;100970.16;5070390;28;1396;-41
2022/02/28 12:18:00;;;;;;;;;;;;;;;29.29;18.65;100970.69;5073065;28;1424;-41
2022/02/28 12:20:29;;;;;;;;;;;;;;;29.16;18.34;100973.25;5075819;28;1211;-41
2022/02/28 12:25:44;;;;;;;;;;;;;;;29.28;18.31;100982.53;5066721;28;1360;-42
2022/02/28 12:28:28;;;;;;;;;;;;;;;29.24;18.54;100978.56;5068257;28;1890;-41
2022/02/28 12:31:00;;;;;;;;;;;;;;;29.22;18.36;100977.91;5066212;28;1309;-41
2022/02/28 12:33:34;;;;;;;;;;;;;;;29.30;18.22;100983.19;5071037;28;1242;-42
2022/02/28 12:35:59;;;;;;;;;;;;;;;29.32;18.13;100974.88;5069267;28;1598;-41
2022/02/28 12:38:28;;;;;;;;;;;;;;;29.27;18.37;100999.84;5080301;28;1325;-41
2022/02/28 12:40:57;;;;;;;;;;;;;;;29.26;18.37;100981.06;5078172;28;1206;-41
2022/02/28 12:43:23;;;;;;;;;;;;;;;29.20;18.49;100994.34;5081975;28;1296;-41
2022/02/28 12:45:48;;;;;;;;;;;;;;;29.28;18.68;100998.78;5077178;28;1635;-41
2022/02/28 12:48:17;;;;;;;;;;;;;;;29.33;18.53;100990.09;5081845;28;1965;-41
2022/02/28 12:50:46;;;;;;;;;;;;;;;28.98;18.75;100987.22;5082335;28;1306;-41
2022/02/28 12:53:11;;;;;;;;;;;;;;;28.71;18.74;100990.41;5080783;28;1459;-41